Time;durP1;ratioP1;P1;durP2;ratioP2;P2;SDS_P1;SDS_P2;PMS_P1;PMS_P2;Temp;Humidity;BMP_temperature;BMP_pressure;BME280_temperature;BME280_humidity;BME280_pressure;Samples;Min_cycle;Max_cycle;Signal;HPM_P1;HPM_P2
2024/02/25 00:01:59;;;;;;;0.95;0.60;;;;;;;;;;5020455;28;20422;-78
2024/02/25 00:04:25;;;;;;;1.05;0.85;;;;;;;;;;5023120;28;20030;-80
2024/02/25 00:06:51;;;;;;;0.77;0.60;;;;;;;;;;5020886;28;20040;-79
2024/02/25 00:09:17;;;;;;;0.82;0.82;;;;;;;;;;5036800;28;20034;-79
2024/02/25 00:11:43;;;;;;;1.27;0.95;;;;;;;;;;5021726;28;20030;-79
2024/02/25 00:14:09;;;;;;;2.00;0.75;;;;;;;;;;5020349;28;20065;-80
2024/02/25 00:16:35;;;;;;;0.95;0.95;;;;;;;;;;5022845;28;20052;-80
2024/02/25 00:19:02;;;;;;;1.23;1.02;;;;;;;;;;5025441;28;20026;-79
2024/02/25 00:21:29;;;;;;;3.45;1.50;;;;;;;;;;5020782;28;20026;-79
2024/02/25 00:23:55;;;;;;;1.75;1.40;;;;;;;;;;5019326;28;20082;-78
2024/02/25 00:26:22;;;;;;;3.40;2.22;;;;;;;;;;5020015;28;20030;-78
2024/02/25 00:28:48;;;;;;;3.30;2.47;;;;;;;;;;5026705;28;20449;-78
2024/02/25 00:31:14;;;;;;;4.82;2.50;;;;;;;;;;5023975;28;20444;-78
2024/02/25 00:33:40;;;;;;;4.93;2.40;;;;;;;;;;5020102;28;20538;-77
2024/02/25 00:36:08;;;;;;;3.50;2.30;;;;;;;;;;5019473;28;20033;-78
2024/02/25 00:38:34;;;;;;;3.22;2.33;;;;;;;;;;5044199;28;20022;-77
2024/02/25 00:41:00;;;;;;;3.13;2.17;;;;;;;;;;5028131;28;20397;-78
2024/02/25 00:43:26;;;;;;;1.83;1.65;;;;;;;;;;5026707;28;20022;-79
2024/02/25 00:45:52;;;;;;;1.73;1.30;;;;;;;;;;5026477;28;20485;-79
2024/02/25 00:48:18;;;;;;;2.28;1.45;;;;;;;;;;5019078;28;20060;-78
2024/02/25 00:50:44;;;;;;;2.08;1.58;;;;;;;;;;5017523;28;20370;-79
2024/02/25 00:53:10;;;;;;;2.75;1.80;;;;;;;;;;5020827;28;20038;-79
2024/02/25 00:55:36;;;;;;;1.67;1.42;;;;;;;;;;5021509;28;20029;-78
2024/02/25 00:58:02;;;;;;;2.95;1.40;;;;;;;;;;5017788;28;20018;-79
2024/02/25 01:00:28;;;;;;;3.00;1.45;;;;;;;;;;5017484;28;20022;-79
2024/02/25 01:02:54;;;;;;;2.15;1.27;;;;;;;;;;5010882;28;20434;-80
2024/02/25 01:05:21;;;;;;;1.52;1.23;;;;;;;;;;5018842;28;20026;-77
2024/02/25 01:07:47;;;;;;;1.35;1.10;;;;;;;;;;5022487;28;20033;-79
2024/02/25 01:10:13;;;;;;;2.15;1.27;;;;;;;;;;5022697;28;20060;-79
2024/02/25 01:12:39;;;;;;;1.55;0.98;;;;;;;;;;5018179;28;20111;-78
2024/02/25 01:15:06;;;;;;;1.55;1.42;;;;;;;;;;5034384;28;20022;-78
2024/02/25 01:17:32;;;;;;;1.13;0.88;;;;;;;;;;5022713;28;20026;-78
2024/02/25 01:19:58;;;;;;;1.95;1.05;;;;;;;;;;5047806;28;20041;-79
2024/02/25 01:22:24;;;;;;;1.20;0.93;;;;;;;;;;5020320;28;20481;-78
2024/02/25 01:24:50;;;;;;;1.25;1.00;;;;;;;;;;5022878;28;20033;-78
2024/02/25 01:27:16;;;;;;;2.67;1.05;;;;;;;;;;5031182;28;20090;-78
2024/02/25 01:29:42;;;;;;;1.10;1.00;;;;;;;;;;5028261;28;20025;-78
2024/02/25 01:32:08;;;;;;;1.25;0.88;;;;;;;;;;5044532;28;20017;-77
2024/02/25 01:34:34;;;;;;;2.35;1.23;;;;;;;;;;5028551;28;20501;-78
2024/02/25 01:37:00;;;;;;;1.63;0.90;;;;;;;;;;5026251;28;20022;-78
2024/02/25 01:39:26;;;;;;;0.95;0.90;;;;;;;;;;5018218;28;20191;-79
2024/02/25 01:41:53;;;;;;;1.58;0.88;;;;;;;;;;5021003;28;20049;-77
2024/02/25 01:44:19;;;;;;;1.17;0.70;;;;;;;;;;5032955;28;20018;-78
2024/02/25 01:46:46;;;;;;;1.35;1.17;;;;;;;;;;5019391;28;20113;-79
2024/02/25 01:49:15;;;;;;;1.83;1.00;;;;;;;;;;5025093;28;20395;-79
2024/02/25 01:51:44;;;;;;;1.33;0.88;;;;;;;;;;5033270;28;20077;-79
2024/02/25 01:54:11;;;;;;;2.05;1.33;;;;;;;;;;5018044;28;20090;-79
2024/02/25 01:56:38;;;;;;;1.38;1.10;;;;;;;;;;5042008;28;20045;-79
2024/02/25 01:59:05;;;;;;;1.63;1.25;;;;;;;;;;5018935;28;20025;-78
2024/02/25 02:01:37;;;;;;;1.88;1.30;;;;;;;;;;5017432;28;20018;-78
2024/02/25 02:04:03;;;;;;;0.88;0.88;;;;;;;;;;5017641;28;20036;-78
2024/02/25 02:06:32;;;;;;;1.00;0.90;;;;;;;;;;5025758;28;20102;-77
2024/02/25 02:08:59;;;;;;;1.13;0.90;;;;;;;;;;5034171;28;20082;-77
2024/02/25 02:11:27;;;;;;;0.90;0.90;;;;;;;;;;5034336;28;20046;-76
2024/02/25 02:13:54;;;;;;;1.13;1.02;;;;;;;;;;5034827;28;20022;-77
2024/02/25 02:16:20;;;;;;;1.58;1.10;;;;;;;;;;5027444;28;20022;-78
2024/02/25 02:18:47;;;;;;;1.08;0.93;;;;;;;;;;5019103;28;20022;-78
2024/02/25 02:21:17;;;;;;;1.67;1.08;;;;;;;;;;5018968;28;20474;-79
2024/02/25 02:23:43;;;;;;;1.15;1.00;;;;;;;;;;5011310;28;20055;-78
2024/02/25 02:26:09;;;;;;;1.40;0.80;;;;;;;;;;5031651;28;20054;-77
2024/02/25 02:28:35;;;;;;;1.67;0.80;;;;;;;;;;5016008;28;20399;-79
2024/02/25 02:31:02;;;;;;;1.20;0.80;;;;;;;;;;5016165;28;20049;-77
2024/02/25 02:33:28;;;;;;;0.73;0.70;;;;;;;;;;5017086;28;20105;-78
2024/02/25 02:35:54;;;;;;;0.75;0.70;;;;;;;;;;5017302;28;20030;-79
2024/02/25 02:38:20;;;;;;;0.73;0.73;;;;;;;;;;5017841;28;20076;-79
2024/02/25 02:40:46;;;;;;;0.68;0.63;;;;;;;;;;5027283;28;20037;-78
2024/02/25 02:43:13;;;;;;;0.88;0.60;;;;;;;;;;5030661;28;20040;-78
2024/02/25 02:45:40;;;;;;;0.93;0.82;;;;;;;;;;5024416;28;20026;-78
2024/02/25 02:48:08;;;;;;;0.85;0.70;;;;;;;;;;5014275;28;20092;-77
2024/02/25 02:50:34;;;;;;;0.77;0.60;;;;;;;;;;5014569;28;20022;-77
2024/02/25 02:53:00;;;;;;;1.33;0.82;;;;;;;;;;5016644;28;20026;-78
2024/02/25 02:55:26;;;;;;;0.98;0.73;;;;;;;;;;5017248;28;20030;-78
2024/02/25 02:57:53;;;;;;;0.88;0.70;;;;;;;;;;5015138;28;20105;-78
2024/02/25 03:00:19;;;;;;;0.50;0.50;;;;;;;;;;5016455;28;20465;-78
2024/02/25 03:02:45;;;;;;;1.10;0.95;;;;;;;;;;5030507;28;20369;-78
2024/02/25 03:05:11;;;;;;;1.48;0.60;;;;;;;;;;5015656;28;20018;-78
2024/02/25 03:07:37;;;;;;;1.52;1.00;;;;;;;;;;5014785;28;20064;-78
2024/02/25 03:10:04;;;;;;;0.80;0.77;;;;;;;;;;5014492;28;20079;-78
2024/02/25 03:12:30;;;;;;;1.00;0.85;;;;;;;;;;5015722;28;20022;-78
2024/02/25 03:14:56;;;;;;;1.35;0.73;;;;;;;;;;5014795;28;20026;-78
2024/02/25 03:17:22;;;;;;;1.05;0.80;;;;;;;;;;5012523;28;20548;-78
2024/02/25 03:19:48;;;;;;;1.08;0.82;;;;;;;;;;5015539;28;20026;-78
2024/02/25 03:22:15;;;;;;;1.13;0.82;;;;;;;;;;5020879;28;20033;-78
2024/02/25 03:24:41;;;;;;;1.10;0.98;;;;;;;;;;5024842;28;20543;-77
2024/02/25 03:27:07;;;;;;;2.10;0.88;;;;;;;;;;5026665;28;20048;-78
2024/02/25 03:29:33;;;;;;;1.50;0.80;;;;;;;;;;5022956;28;20028;-78
2024/02/25 03:31:59;;;;;;;0.95;0.77;;;;;;;;;;5025991;28;20026;-78
2024/02/25 03:34:26;;;;;;;1.05;0.80;;;;;;;;;;5042300;28;20022;-78
2024/02/25 03:36:52;;;;;;;1.33;1.02;;;;;;;;;;5018173;28;20017;-78
2024/02/25 03:39:18;;;;;;;1.05;0.98;;;;;;;;;;5029362;28;20014;-78
2024/02/25 03:41:44;;;;;;;1.23;0.95;;;;;;;;;;5027975;28;20049;-78
2024/02/25 03:44:10;;;;;;;0.73;0.70;;;;;;;;;;5026223;28;20017;-77
2024/02/25 03:46:36;;;;;;;1.90;0.90;;;;;;;;;;5022627;28;20027;-78
2024/02/25 03:49:02;;;;;;;1.63;1.05;;;;;;;;;;5023727;28;20029;-78
2024/02/25 03:51:28;;;;;;;0.95;0.80;;;;;;;;;;5024446;28;20109;-78
2024/02/25 03:53:54;;;;;;;0.85;0.70;;;;;;;;;;5023905;28;20466;-79
2024/02/25 03:56:20;;;;;;;0.60;0.55;;;;;;;;;;5046199;28;20026;-78
2024/02/25 03:58:46;;;;;;;1.25;1.10;;;;;;;;;;5030386;28;20030;-79
2024/02/25 04:01:12;;;;;;;1.00;0.90;;;;;;;;;;5027359;28;20044;-78
2024/02/25 04:03:39;;;;;;;0.75;0.60;;;;;;;;;;5024571;28;20030;-79
2024/02/25 04:06:05;;;;;;;1.35;0.80;;;;;;;;;;5024478;28;20029;-78
2024/02/25 04:08:31;;;;;;;0.80;0.80;;;;;;;;;;5025114;28;20045;-79
2024/02/25 04:10:57;;;;;;;0.90;0.70;;;;;;;;;;5017644;28;20022;-78
2024/02/25 04:13:23;;;;;;;1.08;0.70;;;;;;;;;;5024126;28;20093;-78
2024/02/25 04:15:49;;;;;;;0.77;0.57;;;;;;;;;;5034908;28;20026;-79
2024/02/25 04:18:16;;;;;;;1.70;0.70;;;;;;;;;;5032836;28;20461;-79
2024/02/25 04:20:42;;;;;;;1.40;0.90;;;;;;;;;;5021956;28;20045;-78
2024/02/25 04:23:08;;;;;;;1.40;1.10;;;;;;;;;;5030297;28;20392;-77
2024/02/25 04:25:34;;;;;;;0.80;0.80;;;;;;;;;;5030909;28;20484;-78
2024/02/25 04:28:00;;;;;;;1.20;0.60;;;;;;;;;;5030655;28;20029;-78
2024/02/25 04:30:28;;;;;;;1.00;0.80;;;;;;;;;;5034038;28;20077;-78
2024/02/25 04:32:55;;;;;;;0.95;0.85;;;;;;;;;;5026392;28;20048;-79
2024/02/25 04:35:21;;;;;;;0.68;0.68;;;;;;;;;;5024641;28;20020;-78
2024/02/25 04:37:47;;;;;;;1.10;0.90;;;;;;;;;;5022763;28;20014;-78
2024/02/25 04:40:13;;;;;;;1.10;1.00;;;;;;;;;;5027139;28;20029;-78
2024/02/25 04:42:39;;;;;;;1.58;0.77;;;;;;;;;;5030343;28;20037;-78
2024/02/25 04:45:08;;;;;;;0.75;0.63;;;;;;;;;;5027343;28;20018;-78
2024/02/25 04:47:34;;;;;;;0.73;0.50;;;;;;;;;;5039329;28;20029;-78
2024/02/25 04:50:00;;;;;;;0.70;0.68;;;;;;;;;;5026816;28;20021;-77
2024/02/25 04:52:26;;;;;;;0.73;0.60;;;;;;;;;;5025168;28;20072;-81
2024/02/25 04:54:52;;;;;;;0.88;0.70;;;;;;;;;;5028488;28;20021;-79
2024/02/25 04:57:20;;;;;;;0.65;0.55;;;;;;;;;;5045856;28;20021;-80
2024/02/25 04:59:46;;;;;;;0.75;0.52;;;;;;;;;;5026187;28;20014;-80
2024/02/25 05:02:12;;;;;;;0.60;0.52;;;;;;;;;;5031515;28;20022;-79
2024/02/25 05:04:42;;;;;;;1.10;0.60;;;;;;;;;;5041967;28;20020;-79
2024/02/25 05:07:08;;;;;;;0.75;0.60;;;;;;;;;;5025615;28;20022;-80
2024/02/25 05:09:34;;;;;;;0.60;0.57;;;;;;;;;;5027147;28;20029;-78
2024/02/25 05:12:00;;;;;;;0.60;0.50;;;;;;;;;;5021649;28;20026;-79
2024/02/25 05:14:26;;;;;;;1.17;0.52;;;;;;;;;;5031193;28;20013;-79
2024/02/25 05:16:53;;;;;;;0.90;0.57;;;;;;;;;;5027436;28;20025;-80
2024/02/25 05:19:19;;;;;;;0.47;0.32;;;;;;;;;;5026907;28;20062;-79
2024/02/25 05:21:45;;;;;;;0.47;0.40;;;;;;;;;;5025148;28;20076;-80
2024/02/25 05:24:11;;;;;;;0.52;0.45;;;;;;;;;;5033877;28;20429;-79
2024/02/25 05:26:38;;;;;;;1.20;0.60;;;;;;;;;;5020847;28;20065;-80
2024/02/25 05:29:04;;;;;;;1.08;0.80;;;;;;;;;;5033072;28;20472;-80
2024/02/25 05:31:30;;;;;;;0.80;0.57;;;;;;;;;;5018379;28;20113;-80
2024/02/25 05:33:56;;;;;;;0.77;0.73;;;;;;;;;;5021786;28;20018;-80
2024/02/25 05:36:23;;;;;;;0.82;0.57;;;;;;;;;;5032007;28;20014;-80
2024/02/25 05:38:49;;;;;;;0.52;0.32;;;;;;;;;;5025641;28;20542;-80
2024/02/25 05:41:15;;;;;;;0.57;0.57;;;;;;;;;;5023855;28;20029;-79
2024/02/25 05:43:41;;;;;;;0.73;0.55;;;;;;;;;;5023203;28;20112;-80
2024/02/25 05:46:08;;;;;;;0.43;0.38;;;;;;;;;;5029914;28;20017;-81
2024/02/25 05:48:34;;;;;;;0.75;0.50;;;;;;;;;;5024570;28;20048;-79
2024/02/25 05:51:00;;;;;;;0.63;0.60;;;;;;;;;;5026287;28;20029;-80
2024/02/25 05:53:26;;;;;;;0.43;0.43;;;;;;;;;;5024918;28;20048;-80
2024/02/25 05:55:52;;;;;;;0.50;0.50;;;;;;;;;;5034589;28;20049;-80
2024/02/25 05:58:18;;;;;;;0.57;0.40;;;;;;;;;;5045942;28;20064;-79
2024/02/25 06:00:44;;;;;;;0.40;0.40;;;;;;;;;;5055384;28;20090;-79
2024/02/25 06:03:10;;;;;;;0.45;0.43;;;;;;;;;;5062893;28;20101;-80
2024/02/25 06:05:36;;;;;;;0.30;0.30;;;;;;;;;;5045126;28;20018;-79
2024/02/25 06:08:04;;;;;;;0.30;0.30;;;;;;;;;;5059426;28;20032;-79
2024/02/25 06:10:30;;;;;;;1.30;0.60;;;;;;;;;;5045477;28;20013;-80
2024/02/25 06:12:56;;;;;;;0.47;0.43;;;;;;;;;;5041337;28;20036;-79
2024/02/25 06:15:22;;;;;;;0.20;0.20;;;;;;;;;;5043305;28;20010;-79
2024/02/25 06:17:48;;;;;;;0.82;0.50;;;;;;;;;;5042921;28;20064;-79
2024/02/25 06:20:15;;;;;;;0.88;0.40;;;;;;;;;;5048199;28;20036;-80
2024/02/25 06:22:42;;;;;;;0.38;0.38;;;;;;;;;;5036403;28;20021;-79
2024/02/25 06:25:08;;;;;;;0.60;0.40;;;;;;;;;;5041731;28;20058;-79
2024/02/25 06:27:35;;;;;;;0.30;0.30;;;;;;;;;;5057617;28;20025;-79
2024/02/25 06:30:11;;;;;;;0.40;0.40;;;;;;;;;;5044670;28;20255;-79
2024/02/25 06:32:39;;;;;;;0.45;0.40;;;;;;;;;;5036877;28;20042;-79
2024/02/25 06:35:05;;;;;;;0.40;0.30;;;;;;;;;;5037026;28;20104;-79
2024/02/25 06:37:31;;;;;;;0.35;0.30;;;;;;;;;;5051471;28;20022;-79
2024/02/25 06:39:57;;;;;;;0.55;0.50;;;;;;;;;;5035234;28;20018;-80
2024/02/25 06:42:23;;;;;;;0.28;0.28;;;;;;;;;;5036307;28;20085;-80
2024/02/25 06:44:49;;;;;;;0.40;0.40;;;;;;;;;;5022774;28;20042;-80
2024/02/25 06:47:15;;;;;;;0.40;0.40;;;;;;;;;;5016362;28;20042;-80
2024/02/25 06:49:41;;;;;;;0.30;0.30;;;;;;;;;;5020150;28;20030;-79
2024/02/25 06:52:08;;;;;;;0.40;0.40;;;;;;;;;;5019078;28;20026;-81
2024/02/25 06:54:34;;;;;;;0.50;0.40;;;;;;;;;;5022123;28;20053;-81
2024/02/25 06:57:00;;;;;;;0.25;0.25;;;;;;;;;;5032371;28;20018;-79
2024/02/25 06:59:26;;;;;;;0.55;0.50;;;;;;;;;;5022843;28;20022;-80
2024/02/25 07:01:52;;;;;;;0.60;0.30;;;;;;;;;;5025117;28;20022;-80
2024/02/25 07:04:19;;;;;;;0.40;0.40;;;;;;;;;;5022969;28;20033;-81
2024/02/25 07:06:45;;;;;;;0.40;0.32;;;;;;;;;;5023079;28;20033;-81
2024/02/25 07:09:13;;;;;;;0.45;0.28;;;;;;;;;;5024020;28;20022;-81
2024/02/25 07:11:40;;;;;;;0.75;0.45;;;;;;;;;;5023252;28;20030;-80
2024/02/25 07:14:06;;;;;;;0.40;0.40;;;;;;;;;;5024060;28;20088;-81
2024/02/25 07:16:32;;;;;;;0.50;0.38;;;;;;;;;;5013108;28;20081;-82
2024/02/25 07:18:58;;;;;;;0.20;0.20;;;;;;;;;;5017132;28;20041;-81
2024/02/25 07:21:26;;;;;;;0.30;0.30;;;;;;;;;;5023025;28;20049;-81
2024/02/25 07:23:52;;;;;;;0.57;0.38;;;;;;;;;;5026603;28;20052;-81
2024/02/25 07:26:18;;;;;;;0.47;0.47;;;;;;;;;;5043849;28;20033;-81
2024/02/25 07:28:44;;;;;;;1.48;0.50;;;;;;;;;;5026426;28;20021;-80
2024/02/25 07:31:17;;;;;;;0.95;0.70;;;;;;;;;;5028287;28;20034;-81
2024/02/25 07:33:44;;;;;;;0.50;0.50;;;;;;;;;;5024599;28;20120;-82
2024/02/25 07:36:11;;;;;;;0.75;0.70;;;;;;;;;;5026537;28;20038;-81
2024/02/25 07:38:37;;;;;;;0.45;0.45;;;;;;;;;;5026528;28;20021;-81
2024/02/25 07:41:03;;;;;;;0.68;0.50;;;;;;;;;;5023723;28;20030;-81
2024/02/25 07:43:30;;;;;;;0.40;0.30;;;;;;;;;;5030299;28;20018;-81
2024/02/25 07:45:56;;;;;;;2.50;0.52;;;;;;;;;;5020224;28;20037;-79
2024/02/25 07:48:24;;;;;;;0.52;0.40;;;;;;;;;;5019435;28;20093;-82
2024/02/25 07:50:50;;;;;;;0.60;0.40;;;;;;;;;;5023549;28;20037;-82
2024/02/25 07:53:16;;;;;;;0.40;0.40;;;;;;;;;;5025416;28;20037;-82
2024/02/25 07:55:42;;;;;;;0.32;0.30;;;;;;;;;;5030632;28;20052;-80
2024/02/25 07:58:09;;;;;;;0.40;0.40;;;;;;;;;;5043179;28;20022;-79
2024/02/25 08:00:35;;;;;;;0.40;0.40;;;;;;;;;;5027885;28;20026;-82
2024/02/25 08:03:01;;;;;;;0.40;0.40;;;;;;;;;;5026549;28;20064;-81
2024/02/25 08:05:28;;;;;;;1.08;0.45;;;;;;;;;;5028060;28;20253;-82
2024/02/25 08:07:54;;;;;;;0.95;0.50;;;;;;;;;;5028244;28;20026;-84
2024/02/25 08:10:20;;;;;;;0.63;0.30;;;;;;;;;;5049335;28;20022;-81
2024/02/25 08:12:47;;;;;;;0.40;0.40;;;;;;;;;;5022729;28;20033;-81
2024/02/25 08:15:14;;;;;;;0.38;0.38;;;;;;;;;;5031930;28;20085;-81
2024/02/25 08:17:41;;;;;;;0.80;0.32;;;;;;;;;;5030419;28;20022;-84
2024/02/25 08:20:08;;;;;;;0.30;0.30;;;;;;;;;;5023862;28;20073;-82
2024/02/25 08:22:34;;;;;;;0.32;0.28;;;;;;;;;;5025066;28;20037;-83
2024/02/25 08:25:00;;;;;;;0.22;0.22;;;;;;;;;;5043749;28;20022;-85
2024/02/25 08:27:32;;;;;;;0.60;0.20;;;;;;;;;;5040412;28;20021;-84
2024/02/25 08:29:58;;;;;;;0.30;0.30;;;;;;;;;;5017588;28;20021;-83
2024/02/25 08:32:24;;;;;;;0.30;0.20;;;;;;;;;;5033339;28;20083;-82
2024/02/25 08:34:54;;;;;;;0.20;0.20;;;;;;;;;;5039640;28;20120;-83
2024/02/25 08:37:21;;;;;;;0.15;0.15;;;;;;;;;;5039569;28;20044;-83
2024/02/25 08:39:48;;;;;;;0.20;0.20;;;;;;;;;;5025950;28;20034;-83
2024/02/25 08:42:14;;;;;;;0.30;0.30;;;;;;;;;;5024609;28;20026;-83
2024/02/25 08:44:40;;;;;;;0.60;0.17;;;;;;;;;;5025489;28;20037;-82
2024/02/25 08:47:06;;;;;;;0.43;0.43;;;;;;;;;;5039641;28;20034;-84
2024/02/25 08:49:32;;;;;;;0.52;0.40;;;;;;;;;;5043977;28;20022;-82
2024/02/25 08:51:58;;;;;;;0.40;0.40;;;;;;;;;;5032451;28;20526;-82
2024/02/25 08:54:24;;;;;;;0.20;0.20;;;;;;;;;;5033622;28;20045;-83
2024/02/25 08:56:50;;;;;;;0.43;0.17;;;;;;;;;;5038122;28;20029;-82
2024/02/25 08:59:16;;;;;;;0.43;0.20;;;;;;;;;;5037098;28;20038;-81
2024/02/25 09:01:42;;;;;;;0.20;0.20;;;;;;;;;;5028852;28;20026;-83
2024/02/25 09:04:10;;;;;;;0.30;0.30;;;;;;;;;;5029471;28;20029;-82
2024/02/25 09:06:36;;;;;;;0.20;0.20;;;;;;;;;;5026313;28;20052;-82
2024/02/25 09:09:02;;;;;;;0.63;0.35;;;;;;;;;;5028390;28;20018;-81
2024/02/25 09:11:28;;;;;;;0.77;0.60;;;;;;;;;;5034440;28;20027;-81
2024/02/25 09:13:55;;;;;;;1.10;0.60;;;;;;;;;;5037527;28;20061;-83
2024/02/25 09:16:22;;;;;;;0.60;0.60;;;;;;;;;;5035379;28;20048;-84
2024/02/25 09:18:48;;;;;;;0.60;0.60;;;;;;;;;;5037127;28;20022;-83
2024/02/25 09:21:15;;;;;;;0.30;0.30;;;;;;;;;;5044016;28;20036;-84
2024/02/25 09:23:42;;;;;;;0.70;0.52;;;;;;;;;;5040862;28;20065;-84
2024/02/25 09:26:08;;;;;;;0.88;0.45;;;;;;;;;;5043790;28;20026;-83
2024/02/25 09:28:34;;;;;;;0.65;0.50;;;;;;;;;;5037033;28;20030;-84
2024/02/25 09:31:00;;;;;;;0.82;0.45;;;;;;;;;;5035727;28;20026;-83
2024/02/25 09:33:29;;;;;;;0.85;0.40;;;;;;;;;;5030976;28;20068;-83
2024/02/25 09:35:56;;;;;;;0.50;0.50;;;;;;;;;;5044689;28;20393;-83
2024/02/25 09:38:22;;;;;;;0.40;0.40;;;;;;;;;;5018758;28;20022;-84
2024/02/25 09:40:51;;;;;;;0.30;0.30;;;;;;;;;;5030221;28;20086;-80
2024/02/25 09:43:17;;;;;;;0.57;0.38;;;;;;;;;;5047901;28;20026;-81
2024/02/25 09:45:48;;;;;;;0.43;0.43;;;;;;;;;;5022492;28;20018;-82
2024/02/25 09:48:14;;;;;;;0.40;0.28;;;;;;;;;;5017550;28;20036;-82
2024/02/25 09:50:41;;;;;;;1.17;0.55;;;;;;;;;;5050823;28;20038;-83
2024/02/25 09:53:07;;;;;;;0.45;0.30;;;;;;;;;;5038307;28;20056;-83
2024/02/25 09:55:33;;;;;;;0.52;0.40;;;;;;;;;;5037551;28;20021;-83
2024/02/25 09:57:59;;;;;;;0.30;0.30;;;;;;;;;;5033380;28;20060;-81
2024/02/25 10:00:25;;;;;;;0.40;0.32;;;;;;;;;;5032368;28;20024;-81
2024/02/25 10:02:51;;;;;;;0.25;0.25;;;;;;;;;;5029844;28;20037;-82
2024/02/25 10:05:19;;;;;;;0.38;0.38;;;;;;;;;;5021557;28;20026;-81
2024/02/25 10:07:45;;;;;;;0.63;0.38;;;;;;;;;;5036765;28;20018;-83
2024/02/25 10:10:12;;;;;;;0.68;0.38;;;;;;;;;;5033883;28;20014;-81
2024/02/25 10:12:41;;;;;;;0.80;0.20;;;;;;;;;;5018897;28;20085;-81
2024/02/25 10:15:13;;;;;;;0.30;0.30;;;;;;;;;;5033383;28;20033;-82
2024/02/25 10:17:39;;;;;;;;;;;;;;;;;;5013095;28;20018;-82
2024/02/25 10:20:10;;;;;;;0.20;0.20;;;;;;;;;;5021810;28;19905;-81
2024/02/25 10:22:36;;;;;;;0.30;0.30;;;;;;;;;;5021989;28;20018;-82
2024/02/25 10:25:07;;;;;;;2.05;0.30;;;;;;;;;;5044492;28;20083;-82
2024/02/25 10:27:33;;;;;;;0.57;0.30;;;;;;;;;;5029378;28;20072;-83
2024/02/25 10:30:01;;;;;;;0.57;0.22;;;;;;;;;;5024934;28;20084;-80
2024/02/25 10:32:27;;;;;;;0.20;0.10;;;;;;;;;;5025221;28;20022;-82
2024/02/25 10:34:54;;;;;;;0.40;0.40;;;;;;;;;;5025117;28;20018;-82
2024/02/25 10:37:21;;;;;;;0.75;0.40;;;;;;;;;;5030661;28;20010;-83
2024/02/25 10:39:49;;;;;;;0.80;0.32;;;;;;;;;;5039019;28;20030;-84
2024/02/25 10:42:16;;;;;;;0.10;0.10;;;;;;;;;;5038606;28;20013;-82
2024/02/25 10:44:42;;;;;;;0.10;0.10;;;;;;;;;;5050741;28;20034;-82
2024/02/25 10:47:13;;;;;;;0.10;0.10;;;;;;;;;;5037869;28;20087;-85
2024/02/25 10:49:40;;;;;;;0.30;0.30;;;;;;;;;;5023123;28;20081;-84
2024/02/25 10:52:08;;;;;;;0.55;0.20;;;;;;;;;;5030924;28;20045;-86
2024/02/25 10:54:37;;;;;;;0.20;0.20;;;;;;;;;;5047677;28;20029;-86
2024/02/25 10:57:04;;;;;;;0.17;0.17;;;;;;;;;;5040406;28;20045;-85
2024/02/25 10:59:30;;;;;;;0.47;0.30;;;;;;;;;;5048722;28;20017;-85
2024/02/25 11:01:59;;;;;;;0.20;0.20;;;;;;;;;;5053236;28;20026;-86
2024/02/25 11:04:26;;;;;;;0.30;0.30;;;;;;;;;;5073688;28;20021;-87
2024/02/25 11:06:55;;;;;;;0.20;0.20;;;;;;;;;;5073619;28;20030;-86
2024/02/25 11:09:22;;;;;;;0.38;0.13;;;;;;;;;;5069708;28;20025;-85
2024/02/25 11:11:49;;;;;;;0.82;0.32;;;;;;;;;;5070480;28;20047;-86
2024/02/25 11:14:21;;;;;;;0.10;0.10;;;;;;;;;;5058777;28;20093;-85
2024/02/25 11:16:50;;;;;;;0.30;0.20;;;;;;;;;;5037801;28;20029;-86
2024/02/25 11:19:17;;;;;;;0.40;0.30;;;;;;;;;;5051096;28;20014;-86
2024/02/25 11:21:43;;;;;;;0.20;0.20;;;;;;;;;;5050970;28;20094;-87
2024/02/25 11:24:12;;;;;;;0.20;0.20;;;;;;;;;;5051259;28;20033;-85
2024/02/25 11:26:39;;;;;;;0.30;0.30;;;;;;;;;;5050922;28;20163;-86
2024/02/25 11:29:21;;;;;;;0.47;0.30;;;;;;;;;;5036873;28;20018;-86
2024/02/25 11:31:51;;;;;;;0.10;0.10;;;;;;;;;;5053777;28;20026;-86
2024/02/25 11:34:24;;;;;;;0.20;0.20;;;;;;;;;;5042415;28;20057;-87
2024/02/25 11:36:55;;;;;;;0.70;0.20;;;;;;;;;;5017508;28;20165;-85
2024/02/25 11:39:22;;;;;;;0.38;0.20;;;;;;;;;;5034990;28;20074;-86
2024/02/25 11:41:49;;;;;;;0.20;0.20;;;;;;;;;;5027621;28;20022;-87
2024/02/25 11:44:17;;;;;;;1.13;0.28;;;;;;;;;;5029127;28;20122;-86
2024/02/25 11:46:43;;;;;;;0.10;0.10;;;;;;;;;;5017252;28;20098;-85
2024/02/25 11:49:10;;;;;;;0.20;0.20;;;;;;;;;;5018423;28;20075;-84
2024/02/25 11:51:36;;;;;;;0.32;0.32;;;;;;;;;;5033469;28;20038;-86
2024/02/25 11:54:02;;;;;;;0.57;0.30;;;;;;;;;;5032920;28;20060;-86
2024/02/25 11:56:29;;;;;;;0.82;0.20;;;;;;;;;;5019829;28;20049;-87
2024/02/25 11:58:55;;;;;;;0.60;0.20;;;;;;;;;;5032707;28;20035;-85
2024/02/25 12:01:21;;;;;;;0.15;0.10;;;;;;;;;;5009930;28;20030;-86
2024/02/25 12:03:47;;;;;;;1.92;0.40;;;;;;;;;;5010678;28;20034;-85
2024/02/25 12:06:14;;;;;;;0.75;0.40;;;;;;;;;;5023884;28;20030;-86
2024/02/25 12:08:46;;;;;;;0.40;0.30;;;;;;;;;;5025548;28;20011;-85
2024/02/25 12:11:13;;;;;;;0.38;0.20;;;;;;;;;;5007388;28;20048;-86
2024/02/25 12:13:45;;;;;;;0.30;0.30;;;;;;;;;;5021676;28;20034;-85
2024/02/25 12:16:13;;;;;;;0.28;0.28;;;;;;;;;;5027346;28;20017;-82
2024/02/25 12:18:39;;;;;;;0.25;0.20;;;;;;;;;;5026216;28;20022;-84
2024/02/25 12:21:06;;;;;;;0.40;0.30;;;;;;;;;;5026308;28;20026;-83
2024/02/25 12:23:32;;;;;;;0.55;0.30;;;;;;;;;;5023692;28;20022;-86
2024/02/25 12:26:02;;;;;;;0.52;0.40;;;;;;;;;;5039341;28;20033;-86
2024/02/25 12:28:29;;;;;;;0.30;0.30;;;;;;;;;;5024544;28;20029;-84
2024/02/25 12:30:55;;;;;;;0.35;0.20;;;;;;;;;;5033719;28;20025;-84
2024/02/25 12:33:23;;;;;;;0.20;0.20;;;;;;;;;;5026711;28;20056;-84
2024/02/25 12:35:50;;;;;;;0.20;0.20;;;;;;;;;;5033595;28;20017;-83
2024/02/25 12:38:16;;;;;;;0.30;0.30;;;;;;;;;;5036523;28;20057;-83
2024/02/25 12:40:45;;;;;;;0.25;0.25;;;;;;;;;;5020820;28;20440;-83
2024/02/25 12:43:14;;;;;;;0.45;0.40;;;;;;;;;;5024364;28;20029;-84
2024/02/25 12:45:40;;;;;;;0.82;0.30;;;;;;;;;;5023875;28;20400;-83
2024/02/25 12:48:07;;;;;;;0.40;0.35;;;;;;;;;;5028660;28;20485;-83
2024/02/25 12:50:33;;;;;;;0.40;0.38;;;;;;;;;;5030284;28;20029;-82
2024/02/25 12:53:02;;;;;;;0.20;0.20;;;;;;;;;;5024236;28;20129;-84
2024/02/25 12:55:29;;;;;;;0.43;0.30;;;;;;;;;;5029466;28;20076;-84
2024/02/25 12:57:55;;;;;;;0.50;0.28;;;;;;;;;;5037256;28;20022;-83
2024/02/25 13:00:21;;;;;;;0.30;0.30;;;;;;;;;;5037235;28;20010;-83
2024/02/25 13:02:47;;;;;;;0.40;0.28;;;;;;;;;;5040721;28;20058;-83
2024/02/25 13:05:13;;;;;;;0.20;0.20;;;;;;;;;;5028270;28;20037;-83
2024/02/25 13:07:39;;;;;;;0.30;0.30;;;;;;;;;;5022216;28;20040;-84
2024/02/25 13:10:06;;;;;;;0.30;0.30;;;;;;;;;;5038639;28;20022;-85
2024/02/25 13:12:35;;;;;;;0.57;0.45;;;;;;;;;;5022549;28;20409;-83
2024/02/25 13:15:05;;;;;;;0.22;0.22;;;;;;;;;;5023095;28;20373;-83
2024/02/25 13:17:33;;;;;;;0.43;0.43;;;;;;;;;;5023042;28;20138;-83
2024/02/25 13:20:00;;;;;;;0.45;0.45;;;;;;;;;;5019942;28;20033;-80
2024/02/25 13:22:27;;;;;;;0.40;0.40;;;;;;;;;;5023005;28;20045;-80
2024/02/25 13:24:53;;;;;;;0.68;0.68;;;;;;;;;;5025400;28;20042;-81
2024/02/25 13:27:20;;;;;;;0.80;0.70;;;;;;;;;;5036992;28;20065;-80
2024/02/25 13:29:49;;;;;;;0.40;0.40;;;;;;;;;;5029204;28;20040;-81
2024/02/25 13:32:18;;;;;;;0.45;0.45;;;;;;;;;;5022055;28;20026;-80
2024/02/25 13:34:47;;;;;;;0.38;0.38;;;;;;;;;;5019742;28;20042;-81
2024/02/25 13:37:13;;;;;;;0.38;0.32;;;;;;;;;;5019154;28;20167;-81
2024/02/25 13:39:43;;;;;;;0.50;0.50;;;;;;;;;;5023638;28;20033;-80
2024/02/25 13:42:09;;;;;;;0.45;0.45;;;;;;;;;;5032439;28;20030;-81
2024/02/25 13:44:36;;;;;;;1.40;0.50;;;;;;;;;;5023136;28;20042;-82
2024/02/25 13:47:02;;;;;;;0.77;0.20;;;;;;;;;;5021374;28;20041;-81
2024/02/25 13:49:29;;;;;;;0.40;0.30;;;;;;;;;;5019632;28;20026;-81
2024/02/25 13:51:59;;;;;;;0.60;0.43;;;;;;;;;;5019179;28;20030;-81
2024/02/25 13:54:28;;;;;;;0.20;0.20;;;;;;;;;;5024047;28;20026;-80
2024/02/25 13:56:55;;;;;;;0.40;0.40;;;;;;;;;;5018909;28;20083;-80
2024/02/25 13:59:21;;;;;;;0.30;0.30;;;;;;;;;;5017694;28;20026;-82
2024/02/25 14:01:48;;;;;;;0.10;0.10;;;;;;;;;;5035156;28;20045;-80
2024/02/25 14:04:14;;;;;;;0.22;0.22;;;;;;;;;;5019062;28;20028;-81
2024/02/25 14:06:41;;;;;;;0.50;0.50;;;;;;;;;;5018963;28;20030;-81
2024/02/25 14:09:07;;;;;;;0.22;0.22;;;;;;;;;;5018170;28;20132;-81
2024/02/25 14:11:34;;;;;;;0.50;0.30;;;;;;;;;;5021833;28;20503;-81
2024/02/25 14:14:00;;;;;;;0.40;0.40;;;;;;;;;;5019814;28;20053;-82
2024/02/25 14:16:26;;;;;;;0.22;0.20;;;;;;;;;;5027791;28;20033;-80
2024/02/25 14:18:52;;;;;;;0.47;0.47;;;;;;;;;;5019379;28;20512;-81
2024/02/25 14:21:18;;;;;;;0.45;0.43;;;;;;;;;;5019569;28;20045;-81
2024/02/25 14:23:44;;;;;;;0.70;0.40;;;;;;;;;;5017236;28;20151;-81
2024/02/25 14:26:11;;;;;;;0.30;0.30;;;;;;;;;;5018239;28;20034;-81
2024/02/25 14:28:37;;;;;;;0.22;0.22;;;;;;;;;;5018256;28;20022;-81
2024/02/25 14:31:04;;;;;;;0.52;0.52;;;;;;;;;;5018611;28;20405;-80
2024/02/25 14:33:30;;;;;;;0.40;0.40;;;;;;;;;;5017496;28;20030;-85
2024/02/25 14:36:03;;;;;;;0.50;0.50;;;;;;;;;;5022203;28;20080;-83
2024/02/25 14:38:29;;;;;;;;;;;;;;;;;;5024894;28;20082;-84
2024/02/25 14:40:55;;;;;;;0.50;0.50;;;;;;;;;;5040789;28;19909;-82